Alvord, IA

9:51 PM CST on November 23, 2014 (GMT -0600)
RV south east | Change Station
CLOSE
Current Station
Personal Weather Station
Location: Rock Valley, IA
Elevation: 1309 ft
Nearby Weather Stations
Active Advisory: Wind Advisory Active Notice: Public Information Statement

Elev 1309 ft 43.20 °N, 96.29 °W | Updated 13 minutes ago

Overcast
Overcast
29.1 °F
Feels Like 18 °F
N
15.5
Wind Variable Wind from West

Today
High -- | Low -- °F
--% Chance of Precip.
Yesterday
High -- | Low -- °F
Precip. -- in
7:28 AM 4:54 PM
Waxing Crescent, 3% visible
Pressure 29.51 in
Visibility 10.0 miles
Clouds Overcast 1900 ft
Windchill 18 °F
Dew Point 22 °F
Humidity 76%
Rainfall 0.07 in
Snow Depth Not available.
UV 0 out of 12
Pollen .10 out of 12
Air Quality Not available.
Flu Activity Not available.
METAR KLYV 240335Z AUTO 33017G28KT 10SM OVC019 M01/M05 A2951 RMK AO2

More Conditions Fewer Conditions

Pressure 29.51 in
Visibility 10.0 miles
Clouds Overcast 1900 ft
Windchill 18 °F
Dew Point 22 °F
Humidity 76%
Rainfall 0.07 in
Snow Depth Not available.
UV 0 out of 12
Pollen .10 out of 12
Air Quality Not available.
Flu Activity Not available.
METAR KLYV 240335Z AUTO 33017G28KT 10SM OVC019 M01/M05 A2951 RMK AO2

More Conditions Fewer Conditions

10-Day Weather Forecast

Almanac

Astronomy

Nov. 23, 2014 Rise Set
Actual Time
Civil Twilight
Nautical Twilight
Astronomical Twilight
Moon
Length of Visible Light
Length of Day
Tomorrow will be .
, % of the Moon is Illuminated

Today's Extremes

State Highs State Lows

Community

WunderPhotos

Upload Photos

1,773,262 photos uploaded!

WunderBlogs® & News

Nearby

Air Quality

  Air Quality AQ Index Pollutant
Not available.

Snow Depth

Station Depth Elevation

Earthquake Activity

City Distance Mag. Time & Date
Minimum magnitude displayed is 2.5.

Coastal Water Temperatures

Place Temperature

Nearby Weather Stations